Time,TemperatureF,DewpointF,PressureIn,WindDirection,WindDirectionDegrees,WindSpeedMPH,WindSpeedGustMPH,Humidity,HourlyPrecipIn,Conditions,Clouds,dailyrainin,SoftwareType,DateUTC
2013-05-22 00:00:00,69.8,68.6,29.98,East,83,0.0,0.0,96,0.00,,SCT250,0.00,VWS V14.01,2013-05-22 04:00:00,
2013-05-22 00:01:00,69.8,68.6,29.98,East,83,0.0,0.0,96,0.00,,SCT250,0.00,VWS V14.01,2013-05-22 04:01:00,
2013-05-22 00:04:00,69.7,68.5,29.98,East,83,0.0,0.0,96,0.00,,SCT250,0.00,VWS V14.01,2013-05-22 04:04:00,
2013-05-22 00:09:00,69.7,68.8,29.98,East,83,0.0,0.0,97,0.00,,SCT250,0.00,VWS V14.01,2013-05-22 04:09:00,
2013-05-22 00:14:00,69.6,68.7,29.98,East,83,0.0,0.0,97,0.00,,SCT250,0.00,VWS V14.01,2013-05-22 04:14:00,
2013-05-22 00:19:00,69.7,68.8,29.98,East,83,0.0,0.0,97,0.00,,SCT250,0.00,VWS V14.01,2013-05-22 04:19:00,
2013-05-22 00:24:00,69.6,68.7,29.98,East,83,0.0,0.0,97,0.00,,SCT250,0.00,VWS V14.01,2013-05-22 04:24:00,
2013-05-22 00:29:00,69.6,68.7,29.97,East,83,0.0,0.0,97,0.00,,SCT250,0.00,VWS V14.01,2013-05-22 04:29:00,
2013-05-22 00:34:00,69.5,68.6,29.97,East,83,0.0,0.0,97,0.00,,SCT250,0.00,VWS V14.01,2013-05-22 04:34:00,
2013-05-22 00:39:00,69.4,68.2,29.97,East,83,0.0,0.0,96,0.00,,SCT250,0.00,VWS V14.01,2013-05-22 04:39:00,
2013-05-22 00:44:00,69.3,68.4,29.97,East,83,0.0,0.0,97,0.00,,SCT250,0.00,VWS V14.01,2013-05-22 04:44:00,
2013-05-22 00:50:00,69.3,68.4,29.97,East,83,0.0,0.0,97,0.00,,SCT250,0.00,VWS V14.01,2013-05-22 04:50:00,
2013-05-22 00:55:00,69.2,68.3,29.97,East,83,0.0,0.0,97,0.00,,SCT250,0.00,VWS V14.01,2013-05-22 04:55:00,
2013-05-22 01:00:00,69.1,68.2,29.97,East,83,0.0,0.0,97,0.00,,SCT250,0.00,VWS V14.01,2013-05-22 05:00:00,
2013-05-22 01:05:00,69.1,68.2,29.97,East,83,0.0,0.0,97,0.00,,SCT250,0.00,VWS V14.01,2013-05-22 05:05:00,
2013-05-22 01:10:00,69.0,68.1,29.97,East,83,0.0,0.0,97,0.00,,SCT250,0.00,VWS V14.01,2013-05-22 05:10:00,
2013-05-22 01:15:00,69.0,68.1,29.97,East,83,0.0,0.0,97,0.00,,SCT250,0.00,VWS V14.01,2013-05-22 05:15:00,
2013-05-22 01:20:00,69.0,68.1,29.97,East,83,0.0,0.0,97,0.00,,SCT250,0.00,VWS V14.01,2013-05-22 05:20:00,
2013-05-22 01:25:00,68.9,68.0,29.96,East,83,0.0,0.0,97,0.00,,SCT250,0.00,VWS V14.01,2013-05-22 05:25:00,
2013-05-22 01:31:00,68.9,68.0,29.96,East,83,0.0,0.0,97,0.00,,SCT250,0.00,VWS V14.01,2013-05-22 05:31:00,
2013-05-22 01:36:00,68.8,67.9,29.96,East,83,0.0,0.0,97,0.00,,SCT250,0.00,VWS V14.01,2013-05-22 05:36:00,
2013-05-22 01:41:00,68.7,67.8,29.96,East,83,0.0,0.0,97,0.00,,SCT250,0.00,VWS V14.01,2013-05-22 05:41:00,
2013-05-22 01:46:00,68.7,67.8,29.96,East,83,0.0,0.0,97,0.00,,SCT250,0.00,VWS V14.01,2013-05-22 05:46:00,
2013-05-22 01:51:00,68.7,67.8,29.95,East,83,0.0,0.0,97,0.00,,SCT250,0.00,VWS V14.01,2013-05-22 05:51:00,
2013-05-22 01:56:00,68.7,67.8,29.95,East,83,0.0,0.0,97,0.00,,SCT250,0.00,VWS V14.01,2013-05-22 05:56:00,
2013-05-22 02:01:00,68.6,67.7,29.95,East,83,0.0,0.0,97,0.00,,SCT027,0.00,VWS V14.01,2013-05-22 06:01:00,
2013-05-22 02:06:00,68.6,67.7,29.95,East,83,0.0,0.0,97,0.00,,SCT027,0.00,VWS V14.01,2013-05-22 06:06:00,
2013-05-22 02:11:00,68.6,67.7,29.95,East,83,0.0,0.0,97,0.00,,SCT027,0.00,VWS V14.01,2013-05-22 06:11:00,
2013-05-22 02:17:00,68.5,67.6,29.95,East,83,0.0,0.0,97,0.00,,SCT027,0.00,VWS V14.01,2013-05-22 06:17:00,
2013-05-22 02:22:00,68.5,67.6,29.95,East,83,0.0,0.0,97,0.00,,SCT027,0.00,VWS V14.01,2013-05-22 06:22:00,
2013-05-22 02:27:00,68.5,67.9,29.95,East,83,0.0,0.0,98,0.00,,SCT027,0.00,VWS V14.01,2013-05-22 06:27:00,
2013-05-22 02:32:00,68.5,67.9,29.94,East,83,0.0,0.0,98,0.00,,SCT027,0.00,VWS V14.01,2013-05-22 06:32:00,
2013-05-22 02:37:00,68.5,67.9,29.94,East,83,0.0,0.0,98,0.00,,SCT027,0.00,VWS V14.01,2013-05-22 06:37:00,
2013-05-22 02:42:00,68.6,68.0,29.94,East,83,0.0,0.0,98,0.00,,SCT027,0.00,VWS V14.01,2013-05-22 06:42:00,
2013-05-22 02:47:00,68.6,68.0,29.94,East,83,0.0,0.0,98,0.00,,SCT027,0.00,VWS V14.01,2013-05-22 06:47:00,
2013-05-22 02:52:00,68.7,68.1,29.94,East,83,0.0,0.0,98,0.00,,SCT027,0.00,VWS V14.01,2013-05-22 06:52:00,
2013-05-22 02:57:00,68.8,68.2,29.94,East,83,0.0,0.0,98,0.00,,SCT027,0.00,VWS V14.01,2013-05-22 06:57:00,
2013-05-22 03:02:00,68.7,68.1,29.94,East,83,0.0,0.0,98,0.00,,SCT250,0.00,VWS V14.01,2013-05-22 07:02:00,
2013-05-22 03:08:00,68.6,68.0,29.94,East,83,0.0,0.0,98,0.00,,SCT250,0.00,VWS V14.01,2013-05-22 07:08:00,
2013-05-22 03:13:00,68.6,68.0,29.93,East,83,0.0,0.0,98,0.00,,SCT250,0.00,VWS V14.01,2013-05-22 07:13:00,
2013-05-22 03:18:00,68.5,67.9,29.93,East,83,0.0,0.0,98,0.00,,SCT250,0.00,VWS V14.01,2013-05-22 07:18:00,
2013-05-22 03:23:00,68.5,67.9,29.94,East,83,0.0,0.0,98,0.00,,SCT250,0.00,VWS V14.01,2013-05-22 07:23:00,
2013-05-22 03:28:00,68.5,67.9,29.94,East,83,0.0,0.0,98,0.00,,SCT250,0.00,VWS V14.01,2013-05-22 07:28:00,
2013-05-22 03:33:00,68.5,67.9,29.93,East,83,0.0,0.0,98,0.00,,SCT250,0.00,VWS V14.01,2013-05-22 07:33:00,
2013-05-22 03:38:00,68.5,67.9,29.93,East,83,0.0,0.0,98,0.00,,SCT250,0.00,VWS V14.01,2013-05-22 07:38:00,
2013-05-22 03:43:00,68.5,67.9,29.93,East,83,0.0,0.0,98,0.00,,SCT250,0.00,VWS V14.01,2013-05-22 07:43:00,
2013-05-22 03:48:00,68.4,67.8,29.93,East,83,0.0,0.0,98,0.00,,SCT250,0.00,VWS V14.01,2013-05-22 07:48:00,
2013-05-22 03:54:00,68.3,67.7,29.93,East,83,0.0,0.0,98,0.00,,SCT250,0.00,VWS V14.01,2013-05-22 07:54:00,
2013-05-22 03:59:00,68.2,67.6,29.93,East,83,0.0,0.0,98,0.00,,SCT250,0.00,VWS V14.01,2013-05-22 07:59:00,
2013-05-22 04:04:00,68.1,67.5,29.93,East,83,0.0,0.0,98,0.00,,CLR,0.00,VWS V14.01,2013-05-22 08:04:00,
2013-05-22 04:09:00,68.0,67.4,29.93,East,83,0.0,0.0,98,0.00,,CLR,0.00,VWS V14.01,2013-05-22 08:09:00,
2013-05-22 04:14:00,67.9,67.3,29.93,East,83,0.0,0.0,98,0.00,,CLR,0.00,VWS V14.01,2013-05-22 08:14:00,
2013-05-22 04:19:00,67.9,67.3,29.93,East,83,0.0,0.0,98,0.00,,CLR,0.00,VWS V14.01,2013-05-22 08:19:00,
2013-05-22 04:24:00,67.8,67.2,29.93,East,83,0.0,0.0,98,0.00,,CLR,0.00,VWS V14.01,2013-05-22 08:24:00,
2013-05-22 04:29:00,67.7,66.8,29.93,East,83,0.0,0.0,97,0.00,,CLR,0.00,VWS V14.01,2013-05-22 08:29:00,
2013-05-22 04:34:00,67.7,67.1,29.93,East,83,0.0,0.0,98,0.00,,CLR,0.00,VWS V14.01,2013-05-22 08:34:00,
2013-05-22 04:39:00,67.6,67.0,29.93,East,83,0.0,0.0,98,0.00,,CLR,0.00,VWS V14.01,2013-05-22 08:39:00,
2013-05-22 04:44:00,67.5,66.9,29.94,East,83,0.0,0.0,98,0.00,,CLR,0.00,VWS V14.01,2013-05-22 08:44:00,
2013-05-22 04:49:00,67.5,66.9,29.94,East,83,0.0,0.0,98,0.00,,CLR,0.00,VWS V14.01,2013-05-22 08:49:00,
2013-05-22 04:54:00,67.5,66.9,29.94,East,83,0.0,0.0,98,0.00,,CLR,0.00,VWS V14.01,2013-05-22 08:54:00,
2013-05-22 04:59:00,67.5,66.9,29.94,East,83,0.0,0.0,98,0.00,,CLR,0.00,VWS V14.01,2013-05-22 08:59:00,
2013-05-22 05:05:00,67.5,66.9,29.94,East,83,0.0,0.0,98,0.00,,CLR,0.00,VWS V14.01,2013-05-22 09:05:00,
2013-05-22 05:10:00,67.4,66.8,29.94,East,83,0.0,0.0,98,0.00,,CLR,0.00,VWS V14.01,2013-05-22 09:10:00,
2013-05-22 05:15:00,67.4,66.8,29.94,East,83,0.0,0.0,98,0.00,,CLR,0.00,VWS V14.01,2013-05-22 09:15:00,
2013-05-22 05:20:00,67.4,66.8,29.94,East,83,0.0,0.0,98,0.00,,CLR,0.00,VWS V14.01,2013-05-22 09:20:00,
2013-05-22 05:25:00,67.4,66.8,29.94,East,83,0.0,0.0,98,0.00,,CLR,0.00,VWS V14.01,2013-05-22 09:25:00,
2013-05-22 05:30:00,67.3,66.7,29.94,East,83,0.0,0.0,98,0.00,,CLR,0.00,VWS V14.01,2013-05-22 09:30:00,
2013-05-22 05:35:00,67.3,66.7,29.94,East,83,0.0,0.0,98,0.00,,CLR,0.00,VWS V14.01,2013-05-22 09:35:00,
2013-05-22 05:40:00,67.3,66.7,29.94,East,83,0.0,0.0,98,0.00,,CLR,0.00,VWS V14.01,2013-05-22 09:40:00,
2013-05-22 05:45:00,67.3,66.7,29.95,East,83,0.0,0.0,98,0.00,,CLR,0.00,VWS V14.01,2013-05-22 09:45:00,
2013-05-22 05:50:00,67.3,66.7,29.94,East,83,0.0,0.0,98,0.00,,CLR,0.00,VWS V14.01,2013-05-22 09:50:00,
2013-05-22 05:56:00,67.5,67.2,29.95,East,83,0.0,0.0,99,0.00,,CLR,0.00,VWS V14.01,2013-05-22 09:56:00,
2013-05-22 06:01:00,67.6,67.3,29.94,East,83,0.0,0.0,99,0.00,,SCT150,0.00,VWS V14.01,2013-05-22 10:01:00,
2013-05-22 06:06:00,67.5,66.9,29.94,East,83,0.0,0.0,98,0.00,,SCT150,0.00,VWS V14.01,2013-05-22 10:06:00,
2013-05-22 06:11:00,67.5,66.9,29.95,East,83,0.0,0.0,98,0.00,,SCT150,0.00,VWS V14.01,2013-05-22 10:11:00,
2013-05-22 06:16:00,67.5,66.9,29.95,East,83,0.0,0.0,98,0.00,,SCT150,0.00,VWS V14.01,2013-05-22 10:16:00,
2013-05-22 06:21:00,67.4,66.8,29.95,East,83,0.0,0.0,98,0.00,,SCT150,0.00,VWS V14.01,2013-05-22 10:21:00,
2013-05-22 06:26:00,67.3,66.7,29.95,East,83,0.0,0.0,98,0.00,,SCT150,0.00,VWS V14.01,2013-05-22 10:26:00,
2013-05-22 06:31:00,67.3,66.7,29.95,East,83,0.0,0.0,98,0.00,,SCT150,0.00,VWS V14.01,2013-05-22 10:31:00,
2013-05-22 06:36:00,67.2,66.6,29.95,East,83,0.0,0.0,98,0.00,,SCT150,0.00,VWS V14.01,2013-05-22 10:36:00,
2013-05-22 06:41:00,67.2,66.6,29.95,East,83,0.0,0.0,98,0.00,,SCT150,0.00,VWS V14.01,2013-05-22 10:41:00,
2013-05-22 06:47:00,67.1,66.5,29.95,East,83,0.0,0.0,98,0.00,,SCT150,0.00,VWS V14.01,2013-05-22 10:47:00,
2013-05-22 06:52:00,67.0,66.4,29.95,East,83,0.0,0.0,98,0.00,,SCT150,0.00,VWS V14.01,2013-05-22 10:52:00,
2013-05-22 06:57:00,67.1,66.5,29.96,East,83,0.0,0.0,98,0.00,,SCT150,0.00,VWS V14.01,2013-05-22 10:57:00,
2013-05-22 07:02:00,67.1,66.5,29.96,East,83,0.0,0.0,98,0.00,,,0.00,VWS V14.01,2013-05-22 11:02:00,
2013-05-22 07:07:00,67.2,66.6,29.96,East,83,0.0,0.0,98,0.00,,,0.00,VWS V14.01,2013-05-22 11:07:00,
2013-05-22 07:12:00,67.3,67.0,29.95,East,83,0.0,0.0,99,0.00,,,0.00,VWS V14.01,2013-05-22 11:12:00,
2013-05-22 07:17:00,67.4,67.1,29.96,East,83,0.0,0.0,99,0.00,,,0.00,VWS V14.01,2013-05-22 11:17:00,
2013-05-22 07:22:00,67.6,67.3,29.95,East,83,0.0,0.0,99,0.00,,,0.00,VWS V14.01,2013-05-22 11:22:00,
2013-05-22 07:27:00,67.6,67.3,29.96,East,83,0.0,0.0,99,0.00,,,0.00,VWS V14.01,2013-05-22 11:27:00,
2013-05-22 07:32:00,67.8,67.5,29.96,East,83,0.0,0.0,99,0.00,,,0.00,VWS V14.01,2013-05-22 11:32:00,
2013-05-22 07:38:00,68.1,67.8,29.96,East,83,0.0,0.0,99,0.00,,,0.00,VWS V14.01,2013-05-22 11:38:00,
2013-05-22 07:43:00,68.6,68.3,29.96,East,83,0.0,0.0,99,0.00,,,0.00,VWS V14.01,2013-05-22 11:43:00,
2013-05-22 07:48:00,69.5,69.2,29.96,East,83,0.0,0.0,99,0.00,,,0.00,VWS V14.01,2013-05-22 11:48:00,
2013-05-22 07:53:00,70.3,70.0,29.96,East,83,0.0,0.0,99,0.00,,,0.00,VWS V14.01,2013-05-22 11:53:00,
2013-05-22 07:58:00,70.8,70.5,29.96,East,83,0.0,0.0,99,0.00,,,0.00,VWS V14.01,2013-05-22 11:58:00,
2013-05-22 08:03:00,71.1,70.8,29.96,East,83,0.0,0.0,99,0.00,,SCT150,0.00,VWS V14.01,2013-05-22 12:03:00,
2013-05-22 08:08:00,71.5,71.2,29.96,East,83,0.0,0.0,99,0.00,,SCT150,0.00,VWS V14.01,2013-05-22 12:08:00,
2013-05-22 08:13:00,71.8,71.5,29.96,East,83,0.0,0.0,99,0.00,,SCT150,0.00,VWS V14.01,2013-05-22 12:13:00,
2013-05-22 08:18:00,72.3,72.0,29.96,East,83,2.0,2.0,99,0.00,,SCT150,0.00,VWS V14.01,2013-05-22 12:18:00,
2013-05-22 08:24:00,72.6,72.3,29.96,East,83,0.0,0.0,99,0.00,,SCT150,0.00,VWS V14.01,2013-05-22 12:24:00,
2013-05-22 08:29:00,72.9,72.6,29.96,East,83,0.0,0.0,99,0.00,,SCT150,0.00,VWS V14.01,2013-05-22 12:29:00,
2013-05-22 08:34:00,73.3,73.0,29.96,East,83,0.0,6.0,99,0.00,,SCT150,0.00,VWS V14.01,2013-05-22 12:34:00,
2013-05-22 08:39:00,73.9,73.6,29.96,East,83,2.0,2.0,99,0.00,,SCT150,0.00,VWS V14.01,2013-05-22 12:39:00,
2013-05-22 08:44:00,74.4,73.2,29.96,East,101,0.0,6.0,96,0.00,,SCT150,0.00,VWS V14.01,2013-05-22 12:44:00,
2013-05-22 08:49:00,75.0,73.5,29.97,ESE,107,0.0,6.0,95,0.00,,SCT150,0.00,VWS V14.01,2013-05-22 12:49:00,
2013-05-22 08:54:00,75.7,73.5,29.97,ESE,113,2.0,4.0,93,0.00,,SCT150,0.00,VWS V14.01,2013-05-22 12:54:00,
2013-05-22 08:59:00,76.2,73.4,29.97,ESE,116,0.0,4.0,91,0.00,,SCT150,0.00,VWS V14.01,2013-05-22 12:59:00,
2013-05-22 09:04:00,76.2,73.1,29.97,ESE,105,0.0,6.0,90,0.00,,SCT120,0.00,VWS V14.01,2013-05-22 13:04:00,
2013-05-22 09:09:00,76.4,73.6,29.97,ESE,116,0.0,4.0,91,0.00,,SCT120,0.00,VWS V14.01,2013-05-22 13:09:00,
2013-05-22 09:14:00,76.9,73.1,29.98,ENE,75,4.0,4.0,88,0.00,,SCT120,0.00,VWS V14.01,2013-05-22 13:14:00,
2013-05-22 09:19:00,77.3,73.1,29.98,ESE,103,4.0,10.0,87,0.00,,SCT120,0.00,VWS V14.01,2013-05-22 13:19:00,
2013-05-22 09:25:00,77.6,73.4,29.98,East,88,2.0,6.0,87,0.00,,SCT120,0.00,VWS V14.01,2013-05-22 13:25:00,
2013-05-22 09:30:00,77.8,73.3,29.98,East,97,4.0,4.0,86,0.00,,SCT120,0.00,VWS V14.01,2013-05-22 13:30:00,
2013-05-22 09:35:00,78.0,73.1,29.98,East,88,0.0,0.0,85,0.00,,SCT120,0.00,VWS V14.01,2013-05-22 13:35:00,
2013-05-22 09:40:00,78.1,73.6,29.98,ESE,111,0.0,2.0,86,0.00,,SCT120,0.00,VWS V14.01,2013-05-22 13:40:00,
2013-05-22 09:45:00,78.2,73.0,29.98,East,93,4.0,4.0,84,0.00,,SCT120,0.00,VWS V14.01,2013-05-22 13:45:00,
2013-05-22 09:50:00,78.1,72.5,29.98,East,93,0.0,2.0,83,0.00,,SCT120,0.00,VWS V14.01,2013-05-22 13:50:00,
2013-05-22 09:55:00,77.9,72.3,29.98,East,93,0.0,2.0,83,0.00,,SCT120,0.00,VWS V14.01,2013-05-22 13:55:00,
2013-05-22 10:00:00,77.8,72.6,29.98,ESE,102,2.0,2.0,84,0.00,,SCT120,0.00,VWS V14.01,2013-05-22 14:00:00,
2013-05-22 10:05:00,77.9,72.7,29.98,East,97,0.0,4.0,84,0.00,,BKN065,0.00,VWS V14.01,2013-05-22 14:05:00,
2013-05-22 10:10:00,78.1,72.9,29.98,East,97,0.0,0.0,84,0.00,,BKN065,0.00,VWS V14.01,2013-05-22 14:10:00,
2013-05-22 10:16:00,79.0,73.0,29.98,SSE,147,0.0,4.0,82,0.00,,BKN065,0.00,VWS V14.01,2013-05-22 14:16:00,
2013-05-22 10:21:00,79.8,73.1,29.98,East,84,2.0,4.0,80,0.00,,BKN065,0.00,VWS V14.01,2013-05-22 14:21:00,
2013-05-22 10:26:00,80.5,73.8,29.98,East,82,2.0,4.0,80,0.00,,BKN065,0.00,VWS V14.01,2013-05-22 14:26:00,
2013-05-22 10:31:00,81.0,72.7,29.98,ENE,74,2.0,8.0,76,0.00,,BKN065,0.00,VWS V14.01,2013-05-22 14:31:00,
2013-05-22 10:36:00,81.1,72.8,29.98,ESE,105,4.0,10.0,76,0.00,,BKN065,0.00,VWS V14.01,2013-05-22 14:36:00,
2013-05-22 10:41:00,81.6,72.5,29.98,North,355,2.0,4.0,74,0.00,,BKN065,0.00,VWS V14.01,2013-05-22 14:41:00,
2013-05-22 10:46:00,82.2,73.5,29.98,East,93,4.0,4.0,75,0.00,,BKN065,0.00,VWS V14.01,2013-05-22 14:46:00,
2013-05-22 10:51:00,83.0,72.6,29.98,East,93,2.0,4.0,71,0.00,,BKN065,0.00,VWS V14.01,2013-05-22 14:51:00,
2013-05-22 10:56:00,83.2,73.2,29.98,ENE,70,2.0,4.0,72,0.00,,BKN065,0.00,VWS V14.01,2013-05-22 14:56:00,
2013-05-22 11:02:00,83.0,73.1,29.98,SE,129,2.0,6.0,72,0.00,,SCT060,0.00,VWS V14.01,2013-05-22 15:02:00,
2013-05-22 11:07:00,83.1,72.7,29.98,ESE,113,4.0,4.0,71,0.00,,SCT060,0.00,VWS V14.01,2013-05-22 15:07:00,
2013-05-22 11:12:00,82.7,71.9,29.98,ESE,113,4.0,4.0,70,0.00,,SCT060,0.00,VWS V14.01,2013-05-22 15:12:00,
2013-05-22 11:17:00,82.6,72.2,29.98,SW,232,0.0,2.0,71,0.00,,SCT060,0.00,VWS V14.01,2013-05-22 15:17:00,
2013-05-22 11:22:00,82.5,71.3,29.98,SW,236,4.0,4.0,69,0.00,,SCT060,0.00,VWS V14.01,2013-05-22 15:22:00,
2013-05-22 11:27:00,82.0,70.4,29.98,WSW,238,0.0,0.0,68,0.00,,SCT060,0.00,VWS V14.01,2013-05-22 15:27:00,
2013-05-22 11:32:00,82.0,72.1,29.98,West,270,0.0,4.0,72,0.00,,SCT060,0.00,VWS V14.01,2013-05-22 15:32:00,
2013-05-22 11:37:00,82.7,70.6,29.98,SW,219,0.0,6.0,67,0.00,,SCT060,0.00,VWS V14.01,2013-05-22 15:37:00,
2013-05-22 11:42:00,83.5,71.8,29.98,WNW,287,0.0,4.0,68,0.00,,SCT060,0.00,VWS V14.01,2013-05-22 15:42:00,
2013-05-22 11:48:00,84.5,70.5,29.98,East,80,2.0,10.0,63,0.00,,SCT060,0.00,VWS V14.01,2013-05-22 15:48:00,
2013-05-22 11:53:00,85.2,70.2,29.98,East,95,2.0,4.0,61,0.00,,SCT060,0.00,VWS V14.01,2013-05-22 15:53:00,
2013-05-22 11:58:00,85.9,69.9,29.98,WSW,252,0.0,6.0,59,0.00,,SCT060,0.00,VWS V14.01,2013-05-22 15:58:00,
2013-05-22 12:03:00,86.5,70.5,29.98,SW,222,2.0,6.0,59,0.00,,SCT065,0.00,VWS V14.01,2013-05-22 16:03:00,
2013-05-22 12:08:00,86.6,71.1,29.98,SSE,165,0.0,6.0,60,0.00,,SCT065,0.00,VWS V14.01,2013-05-22 16:08:00,
2013-05-22 12:13:00,86.9,71.3,29.97,South,185,0.0,8.0,60,0.00,,SCT065,0.00,VWS V14.01,2013-05-22 16:13:00,
2013-05-22 12:18:00,87.0,70.9,29.97,South,170,0.0,4.0,59,0.00,,SCT065,0.00,VWS V14.01,2013-05-22 16:18:00,
2013-05-22 12:23:00,86.8,72.2,29.97,East,88,4.0,4.0,62,0.00,,SCT065,0.00,VWS V14.01,2013-05-22 16:23:00,
2013-05-22 12:28:00,86.2,70.2,29.97,ESE,103,4.0,10.0,59,0.00,,SCT065,0.00,VWS V14.01,2013-05-22 16:28:00,
2013-05-22 12:33:00,86.5,71.0,29.97,East,98,0.0,4.0,60,0.00,,SCT065,0.00,VWS V14.01,2013-05-22 16:33:00,
2013-05-22 12:39:00,87.3,69.7,29.97,East,81,4.0,4.0,56,0.00,,SCT065,0.00,VWS V14.01,2013-05-22 16:39:00,
2013-05-22 12:44:00,87.4,70.3,29.97,East,87,4.0,8.0,57,0.00,,SCT065,0.00,VWS V14.01,2013-05-22 16:44:00,
2013-05-22 12:49:00,87.5,68.8,29.96,East,93,0.0,4.0,54,0.00,,SCT065,0.00,VWS V14.01,2013-05-22 16:49:00,
2013-05-22 12:54:00,87.9,71.3,29.96,East,93,2.0,2.0,58,0.00,,SCT065,0.00,VWS V14.01,2013-05-22 16:54:00,
2013-05-22 12:59:00,87.6,71.0,29.96,ENE,72,4.0,4.0,58,0.00,,SCT065,0.00,VWS V14.01,2013-05-22 16:59:00,
2013-05-22 13:04:00,87.0,70.9,29.96,ENE,74,0.0,2.0,59,0.00,,SCT095,0.00,VWS V14.01,2013-05-22 17:04:00,
2013-05-22 13:09:00,86.3,70.8,29.96,ENE,71,2.0,4.0,60,0.00,,SCT095,0.00,VWS V14.01,2013-05-22 17:09:00,
2013-05-22 13:14:00,85.9,69.9,29.95,NNW,328,0.0,6.0,59,0.00,,SCT095,0.00,VWS V14.01,2013-05-22 17:14:00,
2013-05-22 13:19:00,86.0,71.9,29.95,NNW,328,0.0,4.0,63,0.00,,SCT095,0.00,VWS V14.01,2013-05-22 17:19:00,
2013-05-22 13:24:00,86.5,71.0,29.95,NW,312,0.0,8.0,60,0.00,,SCT095,0.00,VWS V14.01,2013-05-22 17:24:00,
2013-05-22 13:29:00,87.0,70.9,29.95,NW,312,2.0,4.0,59,0.00,,SCT095,0.00,VWS V14.01,2013-05-22 17:29:00,
2013-05-22 13:34:00,87.3,70.2,29.94,NW,312,4.0,4.0,57,0.00,,SCT095,0.00,VWS V14.01,2013-05-22 17:34:00,
2013-05-22 13:39:00,86.9,70.9,29.94,NW,318,0.0,4.0,59,0.00,,SCT095,0.00,VWS V14.01,2013-05-22 17:39:00,
2013-05-22 13:44:00,86.4,71.4,29.94,NW,318,0.0,2.0,61,0.00,,SCT095,0.00,VWS V14.01,2013-05-22 17:44:00,
2013-05-22 13:49:00,86.0,71.5,29.94,NW,318,0.0,4.0,62,0.00,,SCT095,0.00,VWS V14.01,2013-05-22 17:49:00,
2013-05-22 13:55:00,85.8,70.8,29.94,NW,319,0.0,0.0,61,0.00,,SCT095,0.00,VWS V14.01,2013-05-22 17:55:00,
2013-05-22 14:00:00,85.5,70.5,29.94,NE,54,0.0,0.0,61,0.00,,SCT095,0.00,VWS V14.01,2013-05-22 18:00:00,
2013-05-22 14:05:00,85.4,71.8,29.94,ENE,72,4.0,4.0,64,0.00,,BKN100,0.00,VWS V14.01,2013-05-22 18:05:00,
2013-05-22 14:10:00,85.3,70.3,29.94,East,91,2.0,6.0,61,0.00,,BKN100,0.00,VWS V14.01,2013-05-22 18:10:00,
2013-05-22 14:15:00,84.8,72.2,29.94,NE,54,2.0,4.0,66,0.00,,BKN100,0.00,VWS V14.01,2013-05-22 18:15:00,
2013-05-22 14:20:00,83.8,72.6,29.94,NE,51,0.0,6.0,69,0.00,,BKN100,0.00,VWS V14.01,2013-05-22 18:20:00,
2013-05-22 14:25:00,83.0,72.2,29.94,East,99,4.0,10.0,70,0.00,,BKN100,0.00,VWS V14.01,2013-05-22 18:25:00,
2013-05-22 14:30:00,82.2,71.9,29.94,East,79,2.0,4.0,71,0.00,,BKN100,0.00,VWS V14.01,2013-05-22 18:30:00,
2013-05-22 14:35:00,81.8,71.9,29.94,East,93,4.0,6.0,72,0.00,,BKN100,0.00,VWS V14.01,2013-05-22 18:35:00,
2013-05-22 14:40:00,81.7,71.8,29.94,East,92,4.0,8.0,72,0.00,,BKN100,0.00,VWS V14.01,2013-05-22 18:40:00,
2013-05-22 14:45:00,81.6,71.7,29.94,ESE,117,8.0,10.0,72,0.00,,BKN100,0.00,VWS V14.01,2013-05-22 18:45:00,
2013-05-22 14:51:00,82.0,72.5,29.94,ESE,123,10.0,10.0,73,0.00,,BKN100,0.00,VWS V14.01,2013-05-22 18:51:00,
2013-05-22 14:56:00,83.1,71.9,29.93,ESE,113,8.0,16.0,69,0.00,,BKN100,0.00,VWS V14.01,2013-05-22 18:56:00,
2013-05-22 15:01:00,83.0,71.4,29.92,East,101,2.0,12.0,68,0.00,,BKN095,0.00,VWS V14.01,2013-05-22 19:01:00,
2013-05-22 15:06:00,82.7,70.6,29.93,ENE,69,10.0,16.0,67,0.00,,BKN095,0.00,VWS V14.01,2013-05-22 19:06:00,
2013-05-22 15:11:00,82.5,70.0,29.93,East,88,14.0,16.0,66,0.00,,BKN095,0.00,VWS V14.01,2013-05-22 19:11:00,
2013-05-22 15:16:00,82.0,70.8,29.93,ESE,116,14.0,14.0,69,0.00,,BKN095,0.00,VWS V14.01,2013-05-22 19:16:00,
2013-05-22 15:21:00,81.8,69.8,29.93,SSE,158,4.0,14.0,67,0.00,,BKN095,0.00,VWS V14.01,2013-05-22 19:21:00,
2013-05-22 15:26:00,81.6,70.0,29.93,ESE,109,8.0,22.0,68,0.00,,BKN095,0.00,VWS V14.01,2013-05-22 19:26:00,
2013-05-22 15:31:00,81.2,70.5,29.93,ESE,104,4.0,14.0,70,0.00,,BKN095,0.00,VWS V14.01,2013-05-22 19:31:00,
2013-05-22 15:37:00,80.9,71.4,29.93,ESE,117,8.0,16.0,73,0.00,,BKN095,0.00,VWS V14.01,2013-05-22 19:37:00,
2013-05-22 15:42:00,80.3,72.4,29.92,NE,48,8.0,16.0,77,0.00,,BKN095,0.00,VWS V14.01,2013-05-22 19:42:00,
2013-05-22 15:47:00,79.8,72.3,29.92,SSE,157,2.0,18.0,78,0.00,,BKN095,0.00,VWS V14.01,2013-05-22 19:47:00,
2013-05-22 15:52:00,79.4,71.9,29.93,ENE,66,0.0,6.0,78,0.00,,BKN095,0.00,VWS V14.01,2013-05-22 19:52:00,
2013-05-22 15:57:00,79.2,72.1,29.93,ESE,106,6.0,8.0,79,0.00,,BKN095,0.00,VWS V14.01,2013-05-22 19:57:00,
2013-05-22 16:02:00,78.9,72.2,29.93,NNE,28,4.0,4.0,80,0.00,,BKN090,0.00,VWS V14.01,2013-05-22 20:02:00,
2013-05-22 16:07:00,78.7,72.4,29.93,NNE,28,0.0,0.0,81,0.00,,BKN090,0.00,VWS V14.01,2013-05-22 20:07:00,
2013-05-22 16:12:00,78.4,72.1,29.93,NNE,26,2.0,2.0,81,0.01,,BKN090,0.01,VWS V14.01,2013-05-22 20:12:00,
2013-05-22 16:17:00,77.9,72.7,29.94,NW,317,0.0,4.0,84,0.06,,BKN090,0.06,VWS V14.01,2013-05-22 20:17:00,
2013-05-22 16:23:00,77.3,72.8,29.94,NW,317,0.0,2.0,86,0.08,,BKN090,0.08,VWS V14.01,2013-05-22 20:23:00,
2013-05-22 16:28:00,76.5,72.3,29.93,NW,317,0.0,2.0,87,0.10,,BKN090,0.10,VWS V14.01,2013-05-22 20:28:00,
2013-05-22 16:33:00,75.8,72.3,29.93,NW,317,2.0,2.0,89,0.10,,BKN090,0.10,VWS V14.01,2013-05-22 20:33:00,
2013-05-22 16:38:00,75.6,72.8,29.93,NNE,21,0.0,4.0,91,0.10,,BKN090,0.10,VWS V14.01,2013-05-22 20:38:00,
2013-05-22 16:43:00,75.5,73.0,29.93,East,82,0.0,6.0,92,0.10,,BKN090,0.10,VWS V14.01,2013-05-22 20:43:00,
2013-05-22 16:48:00,75.5,72.7,29.93,East,94,0.0,4.0,91,0.10,,BKN090,0.10,VWS V14.01,2013-05-22 20:48:00,
2013-05-22 16:53:00,75.5,73.0,29.93,East,92,0.0,4.0,92,0.10,,BKN090,0.10,VWS V14.01,2013-05-22 20:53:00,
2013-05-22 16:58:00,75.4,72.6,29.93,East,92,0.0,2.0,91,0.10,,BKN090,0.10,VWS V14.01,2013-05-22 20:58:00,
2013-05-22 17:03:00,75.4,72.9,29.94,East,92,0.0,2.0,92,0.10,,RA,0.10,VWS V14.01,2013-05-22 21:03:00,
2013-05-22 17:09:00,75.4,72.9,29.93,East,92,0.0,2.0,92,0.10,,RA,0.10,VWS V14.01,2013-05-22 21:09:00,
2013-05-22 17:14:00,75.4,72.9,29.93,East,98,0.0,2.0,92,0.10,,RA,0.10,VWS V14.01,2013-05-22 21:14:00,
2013-05-22 17:19:00,75.3,72.5,29.92,East,93,0.0,8.0,91,0.07,,RA,0.10,VWS V14.01,2013-05-22 21:19:00,
2013-05-22 17:24:00,75.9,73.7,29.92,ENE,66,2.0,4.0,93,0.02,,RA,0.10,VWS V14.01,2013-05-22 21:24:00,
2013-05-22 17:29:00,76.6,73.1,29.92,East,94,4.0,4.0,89,0.01,,RA,0.10,VWS V14.01,2013-05-22 21:29:00,
2013-05-22 17:34:00,77.6,74.4,29.92,SSE,158,2.0,4.0,90,0.00,,RA,0.10,VWS V14.01,2013-05-22 21:34:00,
2013-05-22 17:39:00,78.0,73.5,29.92,SSE,152,0.0,2.0,86,0.00,,RA,0.10,VWS V14.01,2013-05-22 21:39:00,
2013-05-22 17:44:00,78.0,73.5,29.92,SSE,152,0.0,2.0,86,0.00,,RA,0.10,VWS V14.01,2013-05-22 21:44:00,
2013-05-22 17:49:00,77.9,73.0,29.92,SSE,152,0.0,2.0,85,0.00,,RA,0.10,VWS V14.01,2013-05-22 21:49:00,
2013-05-22 17:55:00,77.6,72.7,29.92,SSE,148,4.0,4.0,85,0.00,,RA,0.10,VWS V14.01,2013-05-22 21:55:00,
2013-05-22 18:00:00,77.3,72.8,29.92,SE,141,2.0,2.0,86,0.00,,RA,0.10,VWS V14.01,2013-05-22 22:00:00,
2013-05-22 18:05:00,77.0,72.8,29.92,SE,141,0.0,0.0,87,0.00,,BKN140,0.10,VWS V14.01,2013-05-22 22:05:00,
2013-05-22 18:10:00,76.7,72.9,29.92,SE,141,0.0,0.0,88,0.00,,BKN140,0.10,VWS V14.01,2013-05-22 22:10:00,
2013-05-22 18:15:00,76.8,73.7,29.92,SE,140,0.0,0.0,90,0.00,,BKN140,0.10,VWS V14.01,2013-05-22 22:15:00,
2013-05-22 18:20:00,77.3,73.5,29.92,SE,140,0.0,0.0,88,0.00,,BKN140,0.10,VWS V14.01,2013-05-22 22:20:00,
2013-05-22 18:25:00,78.0,73.8,29.93,SE,140,0.0,2.0,87,0.00,,BKN140,0.10,VWS V14.01,2013-05-22 22:25:00,
2013-05-22 18:30:00,78.3,73.4,29.92,SE,141,0.0,2.0,85,0.00,,BKN140,0.10,VWS V14.01,2013-05-22 22:30:00,
2013-05-22 18:35:00,78.4,73.9,29.93,SE,140,0.0,0.0,86,0.00,,BKN140,0.10,VWS V14.01,2013-05-22 22:35:00,
2013-05-22 18:41:00,78.2,73.7,29.92,SE,140,0.0,0.0,86,0.00,,BKN140,0.10,VWS V14.01,2013-05-22 22:41:00,
2013-05-22 18:46:00,78.0,73.1,29.92,SE,134,0.0,2.0,85,0.00,,BKN140,0.10,VWS V14.01,2013-05-22 22:46:00,
2013-05-22 18:51:00,78.0,73.5,29.93,SSE,150,0.0,2.0,86,0.00,,BKN140,0.10,VWS V14.01,2013-05-22 22:51:00,
2013-05-22 18:56:00,77.9,73.4,29.93,SSE,150,0.0,0.0,86,0.00,,BKN140,0.10,VWS V14.01,2013-05-22 22:56:00,
2013-05-22 19:01:00,77.9,73.4,29.93,ESE,103,2.0,4.0,86,0.00,,BKN150,0.10,VWS V14.01,2013-05-22 23:01:00,
2013-05-22 19:06:00,77.8,72.9,29.92,ESE,103,0.0,0.0,85,0.00,,BKN150,0.10,VWS V14.01,2013-05-22 23:06:00,
2013-05-22 19:11:00,77.7,73.2,29.92,ESE,103,0.0,0.0,86,0.00,,BKN150,0.10,VWS V14.01,2013-05-22 23:11:00,
2013-05-22 19:16:00,77.6,73.1,29.92,ESE,103,0.0,0.0,86,0.00,,BKN150,0.10,VWS V14.01,2013-05-22 23:16:00,
2013-05-22 19:21:00,77.5,72.6,29.92,ESE,118,4.0,4.0,85,0.00,,BKN150,0.10,VWS V14.01,2013-05-22 23:21:00,
2013-05-22 19:26:00,77.3,72.1,29.92,ESE,115,6.0,8.0,84,0.00,,BKN150,0.10,VWS V14.01,2013-05-22 23:26:00,
2013-05-22 19:32:00,77.1,71.5,29.92,East,91,2.0,6.0,83,0.00,,BKN150,0.10,VWS V14.01,2013-05-22 23:32:00,
2013-05-22 19:37:00,76.9,72.1,29.93,East,101,0.0,4.0,85,0.00,,BKN150,0.10,VWS V14.01,2013-05-22 23:37:00,
2013-05-22 19:42:00,76.8,72.3,29.93,ESE,110,0.0,6.0,86,0.00,,BKN150,0.10,VWS V14.01,2013-05-22 23:42:00,
2013-05-22 19:47:00,76.6,72.1,29.93,ESE,110,0.0,0.0,86,0.00,,BKN150,0.10,VWS V14.01,2013-05-22 23:47:00,
2013-05-22 19:52:00,76.3,72.2,29.93,ESE,113,0.0,4.0,87,0.00,,BKN150,0.10,VWS V14.01,2013-05-22 23:52:00,
2013-05-22 19:57:00,76.1,72.3,29.93,ESE,113,0.0,2.0,88,0.00,,BKN150,0.10,VWS V14.01,2013-05-22 23:57:00,
2013-05-22 20:02:00,75.8,72.3,29.93,East,95,0.0,2.0,89,0.00,,BKN160,0.10,VWS V14.01,2013-05-23 00:02:00,
2013-05-22 20:07:00,75.6,71.8,29.93,ESE,117,0.0,6.0,88,0.00,,BKN160,0.10,VWS V14.01,2013-05-23 00:07:00,
2013-05-22 20:12:00,75.6,71.8,29.93,ESE,119,4.0,8.0,88,0.00,,BKN160,0.10,VWS V14.01,2013-05-23 00:12:00,
2013-05-22 20:17:00,75.7,71.6,29.93,ESE,118,2.0,6.0,87,0.00,,BKN160,0.10,VWS V14.01,2013-05-23 00:17:00,
2013-05-22 20:23:00,75.7,71.6,29.93,ESE,116,0.0,4.0,87,0.00,,BKN160,0.10,VWS V14.01,2013-05-23 00:23:00,
2013-05-22 20:28:00,75.7,71.6,29.93,ESE,105,0.0,6.0,87,0.00,,BKN160,0.10,VWS V14.01,2013-05-23 00:28:00,
2013-05-22 20:33:00,75.5,71.7,29.94,East,93,0.0,4.0,88,0.00,,BKN160,0.10,VWS V14.01,2013-05-23 00:33:00,
2013-05-22 20:38:00,75.4,71.6,29.94,East,93,0.0,2.0,88,0.00,,BKN160,0.10,VWS V14.01,2013-05-23 00:38:00,
2013-05-22 20:43:00,75.3,71.5,29.94,ENE,76,4.0,4.0,88,0.00,,BKN160,0.10,VWS V14.01,2013-05-23 00:43:00,
2013-05-22 20:48:00,75.1,71.6,29.94,ENE,76,0.0,2.0,89,0.00,,BKN160,0.10,VWS V14.01,2013-05-23 00:48:00,
2013-05-22 20:53:00,74.9,71.4,29.94,ENE,76,0.0,0.0,89,0.00,,BKN160,0.10,VWS V14.01,2013-05-23 00:53:00,
2013-05-22 20:58:00,74.7,71.2,29.94,ENE,76,0.0,2.0,89,0.00,,BKN160,0.10,VWS V14.01,2013-05-23 00:58:00,
2013-05-22 21:03:00,74.6,71.5,29.93,ENE,76,2.0,2.0,90,0.00,,BKN160,0.10,VWS V14.01,2013-05-23 01:03:00,
2013-05-22 21:09:00,74.6,71.5,29.93,ENE,76,0.0,4.0,90,0.00,,BKN160,0.10,VWS V14.01,2013-05-23 01:09:00,
2013-05-22 21:14:00,74.6,71.5,29.93,East,87,2.0,4.0,90,0.00,,BKN160,0.10,VWS V14.01,2013-05-23 01:14:00,
2013-05-22 21:19:00,74.5,71.4,29.93,ESE,111,2.0,6.0,90,0.00,,BKN160,0.10,VWS V14.01,2013-05-23 01:19:00,
2013-05-22 21:24:00,74.4,71.3,29.93,ESE,103,2.0,10.0,90,0.00,,BKN160,0.10,VWS V14.01,2013-05-23 01:24:00,
2013-05-22 21:29:00,74.3,71.2,29.93,ESE,103,0.0,4.0,90,0.00,,BKN160,0.10,VWS V14.01,2013-05-23 01:29:00,
2013-05-22 21:34:00,74.2,71.1,29.94,ESE,103,0.0,2.0,90,0.00,,BKN160,0.10,VWS V14.01,2013-05-23 01:34:00,
2013-05-22 21:39:00,74.1,71.0,29.94,ESE,103,0.0,2.0,90,0.00,,BKN160,0.10,VWS V14.01,2013-05-23 01:39:00,
2013-05-22 21:44:00,74.0,70.9,29.94,ESE,103,0.0,0.0,90,0.00,,BKN160,0.10,VWS V14.01,2013-05-23 01:44:00,
2013-05-22 21:49:00,73.9,70.8,29.94,ESE,103,0.0,2.0,90,0.00,,BKN160,0.10,VWS V14.01,2013-05-23 01:49:00,
2013-05-22 21:54:00,73.8,71.0,29.94,ESE,103,0.0,0.0,91,0.00,,BKN160,0.10,VWS V14.01,2013-05-23 01:54:00,
2013-05-22 21:59:00,73.7,70.9,29.94,ESE,103,0.0,0.0,91,0.00,,BKN160,0.10,VWS V14.01,2013-05-23 01:59:00,
2013-05-22 22:04:00,73.5,70.7,29.94,ESE,103,0.0,0.0,91,0.00,,SCT250,0.10,VWS V14.01,2013-05-23 02:04:00,
2013-05-22 22:09:00,73.4,70.9,29.95,ESE,103,0.0,0.0,92,0.00,,SCT250,0.10,VWS V14.01,2013-05-23 02:09:00,
2013-05-22 22:15:00,73.2,70.7,29.95,ESE,103,0.0,0.0,92,0.00,,SCT250,0.10,VWS V14.01,2013-05-23 02:15:00,
2013-05-22 22:20:00,73.0,70.5,29.95,ESE,103,0.0,0.0,92,0.00,,SCT250,0.10,VWS V14.01,2013-05-23 02:20:00,
2013-05-22 22:25:00,72.8,70.7,29.95,ESE,103,0.0,0.0,93,0.00,,SCT250,0.10,VWS V14.01,2013-05-23 02:25:00,
2013-05-22 22:30:00,72.7,70.6,29.96,ESE,103,0.0,0.0,93,0.00,,SCT250,0.10,VWS V14.01,2013-05-23 02:30:00,
2013-05-22 22:35:00,72.6,70.5,29.96,ESE,103,0.0,0.0,93,0.00,,SCT250,0.10,VWS V14.01,2013-05-23 02:35:00,
2013-05-22 22:40:00,72.4,70.3,29.96,ESE,103,0.0,0.0,93,0.00,,SCT250,0.10,VWS V14.01,2013-05-23 02:40:00,
2013-05-22 22:45:00,72.3,70.5,29.96,ESE,103,0.0,0.0,94,0.00,,SCT250,0.10,VWS V14.01,2013-05-23 02:45:00,
2013-05-22 22:50:00,72.2,70.4,29.96,ESE,103,0.0,0.0,94,0.00,,SCT250,0.10,VWS V14.01,2013-05-23 02:50:00,
2013-05-22 22:55:00,72.1,70.3,29.96,ESE,103,0.0,0.0,94,0.00,,SCT250,0.10,VWS V14.01,2013-05-23 02:55:00,
2013-05-22 23:01:00,72.1,70.6,29.96,ESE,103,0.0,0.0,95,0.00,,FEW250,0.10,VWS V14.01,2013-05-23 03:01:00,
2013-05-22 23:06:00,72.0,70.5,29.95,ESE,103,0.0,0.0,95,0.00,,FEW250,0.10,VWS V14.01,2013-05-23 03:06:00,
2013-05-22 23:11:00,72.0,70.5,29.95,ESE,103,0.0,0.0,95,0.00,,FEW250,0.10,VWS V14.01,2013-05-23 03:11:00,
2013-05-22 23:16:00,72.0,70.5,29.95,ESE,103,0.0,0.0,95,0.00,,FEW250,0.10,VWS V14.01,2013-05-23 03:16:00,
2013-05-22 23:21:00,72.0,70.5,29.96,ESE,103,0.0,0.0,95,0.00,,FEW250,0.10,VWS V14.01,2013-05-23 03:21:00,
2013-05-22 23:26:00,71.9,70.4,29.95,ESE,103,2.0,4.0,95,0.00,,FEW250,0.10,VWS V14.01,2013-05-23 03:26:00,
2013-05-22 23:31:00,71.9,70.4,29.96,ESE,103,0.0,0.0,95,0.00,,FEW250,0.10,VWS V14.01,2013-05-23 03:31:00,
2013-05-22 23:36:00,71.9,70.4,29.96,ESE,103,0.0,0.0,95,0.00,,FEW250,0.10,VWS V14.01,2013-05-23 03:36:00,
2013-05-22 23:41:00,71.8,70.3,29.96,ESE,103,0.0,0.0,95,0.00,,FEW250,0.10,VWS V14.01,2013-05-23 03:41:00,
2013-05-22 23:46:00,71.7,70.2,29.95,ESE,103,0.0,0.0,95,0.00,,FEW250,0.10,VWS V14.01,2013-05-23 03:46:00,
2013-05-22 23:52:00,71.6,70.1,29.95,ESE,103,0.0,0.0,95,0.00,,FEW250,0.10,VWS V14.01,2013-05-23 03:52:00,
2013-05-22 23:57:00,71.6,70.1,29.95,ESE,103,0.0,0.0,95,0.00,,FEW250,0.10,VWS V14.01,2013-05-23 03:57:00,